KIPL/IPL METAR and TAF weather

Enter ICAO airport designator
Station Type Date Time Source
KIPL METAR 2020/01/26 03:53 UTC NOAA

KIPL 260353Z AUTO 00000KT CLR 17/03 A3004 RMK AO2 SLP171 T01670028


Station Type Date Time Source
KIPL Decoded METAR 2020/01/26 03:53 UTC NOAA

Imperial, Imperial County Airport, CA, United States (KIPL) 32-50-03N 115-34-43W -15M
Jan 25, 2020 - 10:53 PM EST / 2020.01.26 0353 UTC
Wind: Calm:0
Sky conditions: clear
Temperature: 62.1 F (16.7 C)
Dew Point: 37.0 F (2.8 C)
Relative Humidity: 39%
Pressure (altimeter): 30.04 in. Hg (1017 hPa)
ob: KIPL 260353Z AUTO 00000KT CLR 17/03 A3004 RMK AO2 SLP171 T01670028
cycle: 4

Station Type Date Time Source
KIPL TAF 2020/01/25 18:22 UTC NOAA

TAF KIPL 251720Z 2518/2618 VRB04KT P6SM FEW250

Example: see airport list